Time;durP1;ratioP1;P1;durP2;ratioP2;P2;SDS_P1;SDS_P2;PMS_P1;PMS_P2;Temp;Humidity;BMP_temperature;BMP_pressure;BME280_temperature;BME280_humidity;BME280_pressure;Samples;Min_cycle;Max_cycle;Signal;HPM_P1;HPM_P2
2023/12/11 00:02:25;;;;;;;8.73;5.65;;;2.60;70.90;;;;;;4952825;28;114749;-82
2023/12/11 00:04:52;;;;;;;12.90;6.95;;;2.70;70.90;;;;;;4970578;28;114642;-82
2023/12/11 00:07:20;;;;;;;10.52;5.93;;;2.70;70.80;;;;;;4968828;28;115135;-82
2023/12/11 00:09:47;;;;;;;10.68;5.90;;;2.70;70.80;;;;;;4969056;28;114583;-82
2023/12/11 00:12:15;;;;;;;14.80;6.50;;;2.70;70.80;;;;;;4968602;28;114865;-82
2023/12/11 00:14:43;;;;;;;11.82;6.20;;;2.70;70.80;;;;;;4952288;28;114653;-81
2023/12/11 00:17:10;;;;;;;13.18;7.05;;;2.70;70.80;;;;;;4968717;28;115723;-83
2023/12/11 00:19:37;;;;;;;14.00;6.45;;;2.70;70.70;;;;;;4951422;28;114756;-81
2023/12/11 00:22:04;;;;;;;11.27;6.00;;;2.70;70.70;;;;;;4968775;28;115169;-82
2023/12/11 00:24:32;;;;;;;11.63;5.90;;;2.70;70.70;;;;;;4968670;28;114879;-82
2023/12/11 00:26:59;;;;;;;11.15;6.68;;;2.70;70.60;;;;;;4951105;28;115130;-81
2023/12/11 00:29:26;;;;;;;11.10;6.20;;;2.70;70.50;;;;;;4967503;28;115195;-82
2023/12/11 00:31:53;;;;;;;11.55;6.65;;;2.70;70.60;;;;;;4969840;28;114303;-81
2023/12/11 00:34:22;;;;;;;10.93;5.88;;;2.70;70.70;;;;;;4968355;28;114721;-82
2023/12/11 00:36:49;;;;;;;11.40;5.50;;;2.70;70.70;;;;;;4950554;28;115104;-81
2023/12/11 00:39:17;;;;;;;11.30;6.13;;;2.60;70.70;;;;;;4968155;28;115750;-81
2023/12/11 00:41:44;;;;;;;10.70;5.75;;;2.60;70.70;;;;;;4969244;28;114273;-81
2023/12/11 00:44:11;;;;;;;10.10;6.07;;;2.60;70.70;;;;;;4936092;28;114910;-82
2023/12/11 00:46:39;;;;;;;11.23;5.50;;;2.60;70.80;;;;;;4968080;28;115085;-82
2023/12/11 00:49:06;;;;;;;8.25;4.32;;;2.50;70.80;;;;;;4966867;28;115742;-82
2023/12/11 00:51:33;;;;;;;9.60;4.25;;;2.50;70.70;;;;;;4967963;28;114678;-82
2023/12/11 00:54:01;;;;;;;12.77;6.80;;;2.40;70.90;;;;;;4969085;28;114591;-82
2023/12/11 00:56:28;;;;;;;14.70;6.40;;;2.30;71.00;;;;;;4966182;28;116822;-83
2023/12/11 00:58:55;;;;;;;11.25;5.70;;;2.30;71.10;;;;;;4968181;28;114629;-83
2023/12/11 01:01:24;;;;;;;9.50;5.78;;;2.30;71.10;;;;;;4967465;28;114802;-83
2023/12/11 01:03:51;;;;;;;13.18;5.60;;;2.30;71.20;;;;;;4968640;28;114674;-81
2023/12/11 01:06:22;;;;;;;8.90;4.70;;;2.30;71.10;;;;;;4968640;28;115738;-81
2023/12/11 01:08:49;;;;;;;13.60;5.88;;;2.20;71.20;;;;;;4986125;28;114746;-82
2023/12/11 01:11:16;;;;;;;10.38;5.93;;;2.20;71.20;;;;;;4977424;28;114220;-81
2023/12/11 01:13:44;;;;;;;11.73;5.70;;;2.20;71.40;;;;;;4958104;28;114602;-82
2023/12/11 01:16:11;;;;;;;11.27;5.75;;;2.20;71.50;;;;;;4968051;28;115304;-81
2023/12/11 01:18:39;;;;;;;11.23;5.57;;;2.10;71.50;;;;;;4966766;28;114616;-82
2023/12/11 01:21:07;;;;;;;12.20;5.40;;;2.10;71.50;;;;;;4969199;28;115319;-81
2023/12/11 01:23:35;;;;;;;12.85;5.50;;;2.10;71.50;;;;;;4967741;28;114239;-82
2023/12/11 01:26:02;;;;;;;12.70;6.82;;;2.10;71.60;;;;;;4968333;28;115689;-82
2023/12/11 01:28:30;;;;;;;10.55;6.47;;;2.10;71.60;;;;;;4976766;28;114438;-82
2023/12/11 01:30:57;;;;;;;14.63;6.07;;;2.10;71.70;;;;;;4969930;28;114205;-84
2023/12/11 01:33:25;;;;;;;14.10;6.53;;;2.10;71.70;;;;;;4969222;28;114448;-83
2023/12/11 01:35:52;;;;;;;9.70;5.18;;;2.10;71.70;;;;;;4966161;28;115035;-83
2023/12/11 01:38:19;;;;;;;11.27;5.68;;;2.10;71.70;;;;;;4966288;28;114772;-83
2023/12/11 01:40:46;;;;;;;13.35;6.22;;;2.20;71.70;;;;;;4967500;28;115162;-82
2023/12/11 01:43:16;;;;;;;9.88;5.82;;;2.20;71.70;;;;;;4968966;28;114526;-83
2023/12/11 01:46:13;;;;;;;13.45;5.60;;;2.20;71.60;;;;;;4967332;28;115392;-82
2023/12/11 01:48:42;;;;;;;13.32;5.70;;;2.20;71.50;;;;;;4965063;28;115854;-82
2023/12/11 01:51:10;;;;;;;9.70;5.05;;;2.20;71.60;;;;;;4966472;28;114262;-82
2023/12/11 01:53:37;;;;;;;8.43;5.07;;;2.20;71.60;;;;;;4934993;28;114559;-82
2023/12/11 01:56:05;;;;;;;10.50;5.45;;;2.20;71.50;;;;;;4949545;28;116444;-82
2023/12/11 01:58:32;;;;;;;11.48;5.35;;;2.20;71.50;;;;;;4949738;28;114861;-81
2023/12/11 02:01:00;;;;;;;10.75;5.07;;;2.20;71.40;;;;;;4967793;28;114548;-81
2023/12/11 02:03:27;;;;;;;11.73;6.00;;;2.20;71.30;;;;;;4968138;28;114532;-82
2023/12/11 02:05:55;;;;;;;9.73;4.82;;;2.30;71.30;;;;;;4964445;28;115397;-83
2023/12/11 02:08:23;;;;;;;10.77;4.95;;;2.30;71.30;;;;;;4965415;28;115332;-83
2023/12/11 02:10:50;;;;;;;9.55;4.78;;;2.30;71.20;;;;;;4950631;28;114424;-83
2023/12/11 02:13:18;;;;;;;9.75;4.72;;;2.40;71.10;;;;;;4950468;28;114437;-82
2023/12/11 02:15:46;;;;;;;11.85;5.20;;;2.40;71.10;;;;;;4932758;28;117938;-82
2023/12/11 02:18:16;;;;;;;11.48;5.60;;;2.60;71.00;;;;;;4948764;28;114901;-82
2023/12/11 02:20:44;;;;;;;10.30;4.20;;;2.60;70.90;;;;;;4950859;28;114360;-82
2023/12/11 02:23:21;;;;;;;10.57;5.50;;;2.70;70.80;;;;;;4966561;28;115380;-82
2023/12/11 02:25:55;;;;;;;12.35;5.22;;;2.70;70.60;;;;;;4965371;28;115480;-82
2023/12/11 02:28:23;;;;;;;10.52;4.45;;;2.80;70.60;;;;;;4934026;28;115770;-82
2023/12/11 02:30:53;;;;;;;11.07;5.28;;;2.90;70.40;;;;;;4967476;28;114555;-83
2023/12/11 02:33:20;;;;;;;10.18;4.93;;;2.90;70.10;;;;;;4967900;28;114305;-82
2023/12/11 02:35:48;;;;;;;13.43;6.43;;;2.90;69.90;;;;;;4966477;28;115151;-82
2023/12/11 02:38:15;;;;;;;17.88;6.85;;;2.90;70.00;;;;;;4948967;28;114642;-82
2023/12/11 02:40:42;;;;;;;16.98;6.85;;;2.90;69.90;;;;;;4967077;28;114722;-82
2023/12/11 02:43:10;;;;;;;14.70;6.20;;;3.00;69.80;;;;;;4967448;28;114431;-82
2023/12/11 02:45:37;;;;;;;12.68;6.10;;;3.10;69.60;;;;;;4948975;28;115679;-81
2023/12/11 02:48:05;;;;;;;13.18;5.13;;;3.10;69.50;;;;;;4966248;28;114754;-81
2023/12/11 02:50:32;;;;;;;13.13;5.70;;;3.10;69.20;;;;;;4967247;28;114709;-82
2023/12/11 02:53:01;;;;;;;13.20;5.85;;;3.10;69.20;;;;;;4967423;28;114693;-83
2023/12/11 02:55:29;;;;;;;13.40;5.30;;;3.10;69.20;;;;;;4966133;28;115067;-82
2023/12/11 02:57:58;;;;;;;11.13;5.00;;;3.20;69.10;;;;;;4965381;28;115163;-82
2023/12/11 03:00:26;;;;;;;10.40;4.70;;;3.20;68.80;;;;;;4991026;28;114971;-83
2023/12/11 03:02:53;;;;;;;10.07;4.20;;;3.20;68.90;;;;;;4972152;28;114324;-82
2023/12/11 03:05:21;;;;;;;10.73;4.35;;;3.20;68.80;;;;;;4980545;28;115612;-82
2023/12/11 03:07:48;;;;;;;11.30;4.07;;;3.30;68.30;;;;;;4950040;28;114775;-81
2023/12/11 03:10:16;;;;;;;6.55;2.78;;;3.30;68.20;;;;;;4971934;28;114150;-82
2023/12/11 03:12:43;;;;;;;10.13;4.20;;;3.30;67.90;;;;;;4951121;28;114831;-82
2023/12/11 03:15:11;;;;;;;9.90;3.15;;;3.40;67.60;;;;;;4965012;28;115352;-82
2023/12/11 03:17:39;;;;;;;8.95;3.13;;;3.50;67.20;;;;;;4965662;28;114790;-82
2023/12/11 03:20:11;;;;;;;7.65;2.90;;;3.50;67.20;;;;;;4967735;28;115122;-82
2023/12/11 03:22:39;;;;;;;7.95;2.60;;;3.60;67.00;;;;;;4966421;28;114747;-82
2023/12/11 03:25:06;;;;;;;10.10;3.53;;;3.70;66.90;;;;;;4981249;28;115538;-82
2023/12/11 03:27:34;;;;;;;8.02;3.70;;;3.70;66.50;;;;;;4965026;28;114680;-82
2023/12/11 03:30:01;;;;;;;7.78;3.63;;;3.70;65.70;;;;;;4967685;28;114297;-81
2023/12/11 03:32:29;;;;;;;7.93;3.53;;;3.70;65.50;;;;;;4967056;28;114738;-82
2023/12/11 03:34:57;;;;;;;6.85;3.45;;;3.60;65.10;;;;;;4964886;28;115266;-81
2023/12/11 03:37:24;;;;;;;7.70;3.53;;;3.60;64.50;;;;;;4965892;28;114731;-81
2023/12/11 03:39:52;;;;;;;7.65;3.50;;;3.60;64.70;;;;;;4965517;28;114622;-80
2023/12/11 03:42:19;;;;;;;8.23;4.35;;;3.50;64.70;;;;;;4966681;28;115181;-81
2023/12/11 03:44:47;;;;;;;9.63;3.92;;;3.40;64.50;;;;;;4964372;28;115029;-81
2023/12/11 03:47:14;;;;;;;10.63;4.47;;;3.40;64.70;;;;;;4964723;28;114687;-81
2023/12/11 03:49:41;;;;;;;11.27;4.68;;;3.40;64.50;;;;;;4949859;28;114420;-81
2023/12/11 03:52:09;;;;;;;8.38;4.22;;;3.40;64.50;;;;;;4965491;28;114645;-81
2023/12/11 03:54:36;;;;;;;10.43;4.53;;;3.30;64.30;;;;;;4931632;28;118499;-81
2023/12/11 03:57:04;;;;;;;9.90;4.18;;;3.30;64.00;;;;;;4948220;28;115013;-81
2023/12/11 03:59:32;;;;;;;10.20;5.10;;;3.20;64.20;;;;;;4966594;28;115169;-82
2023/12/11 04:01:59;;;;;;;11.93;4.80;;;3.20;64.60;;;;;;4965395;28;114924;-81
2023/12/11 04:04:28;;;;;;;12.48;5.10;;;3.20;64.30;;;;;;4964838;28;115287;-82
2023/12/11 04:06:55;;;;;;;11.98;5.03;;;3.20;64.30;;;;;;4964348;28;115836;-81
2023/12/11 04:09:22;;;;;;;8.65;4.47;;;3.30;64.00;;;;;;4948701;28;114452;-82
2023/12/11 04:11:50;;;;;;;10.52;4.80;;;3.30;64.20;;;;;;4966513;28;114827;-82
2023/12/11 04:14:17;;;;;;;12.32;4.60;;;3.30;64.40;;;;;;4980501;28;115028;-81
2023/12/11 04:16:44;;;;;;;12.60;5.00;;;3.30;64.40;;;;;;4963982;28;114607;-82
2023/12/11 04:19:12;;;;;;;10.43;4.53;;;3.40;64.50;;;;;;4964812;28;114508;-82
2023/12/11 04:21:40;;;;;;;12.43;5.25;;;3.40;64.50;;;;;;4948877;28;114648;-83
2023/12/11 04:24:07;;;;;;;14.52;5.82;;;3.50;64.30;;;;;;4947848;28;115172;-82
2023/12/11 04:26:36;;;;;;;11.02;5.03;;;3.40;64.40;;;;;;4948051;28;114716;-81
2023/12/11 04:29:04;;;;;;;15.43;5.80;;;3.50;64.20;;;;;;4966001;28;114961;-81
2023/12/11 04:31:31;;;;;;;12.68;6.88;;;3.50;63.90;;;;;;4969091;28;114577;-82
2023/12/11 04:33:58;;;;;;;10.48;5.30;;;3.50;64.20;;;;;;4967199;28;115762;-81
2023/12/11 04:36:26;;;;;;;13.90;5.80;;;3.50;64.30;;;;;;4967243;28;115258;-82
2023/12/11 04:38:56;;;;;;;12.02;6.00;;;3.60;64.20;;;;;;4968456;28;114704;-82
2023/12/11 04:41:23;;;;;;;14.60;5.75;;;3.70;64.00;;;;;;4969874;28;114315;-81
2023/12/11 04:43:52;;;;;;;11.13;3.72;;;3.70;64.10;;;;;;4984892;28;118253;-81
2023/12/11 04:46:19;;;;;;;7.57;3.63;;;3.70;63.70;;;;;;4975971;28;114593;-81
2023/12/11 04:48:46;;;;;;;6.88;2.28;;;3.80;63.60;;;;;;4983918;28;114369;-82
2023/12/11 04:51:14;;;;;;;3.97;1.80;;;3.90;63.30;;;;;;4977660;28;114458;-82
2023/12/11 04:53:41;;;;;;;4.32;1.77;;;4.00;63.00;;;;;;4968645;28;115078;-82
2023/12/11 04:56:09;;;;;;;5.35;2.03;;;4.10;62.90;;;;;;4967799;28;114690;-82
2023/12/11 04:58:37;;;;;;;6.03;2.00;;;4.20;62.50;;;;;;4969774;28;114938;-82
2023/12/11 05:01:04;;;;;;;5.90;2.13;;;4.30;62.50;;;;;;4970143;28;114411;-82
2023/12/11 05:03:31;;;;;;;5.75;2.28;;;4.40;62.50;;;;;;4951414;28;115619;-83
2023/12/11 05:05:59;;;;;;;7.28;2.85;;;4.40;62.50;;;;;;4967871;28;115200;-83
2023/12/11 05:08:26;;;;;;;7.53;2.65;;;4.40;62.40;;;;;;4984422;28;114626;-83
2023/12/11 05:10:57;;;;;;;5.05;2.25;;;4.40;62.40;;;;;;4970229;28;114881;-83
2023/12/11 05:13:24;;;;;;;5.00;2.30;;;4.50;62.60;;;;;;4968297;28;115205;-83
2023/12/11 05:15:51;;;;;;;5.07;2.00;;;4.50;62.50;;;;;;4969240;28;114660;-83
2023/12/11 05:18:19;;;;;;;5.80;2.88;;;4.40;62.60;;;;;;4970003;28;114350;-83
2023/12/11 05:20:46;;;;;;;10.00;2.67;;;4.50;62.70;;;;;;4969487;28;114340;-83
2023/12/11 05:23:13;;;;;;;4.65;2.42;;;4.50;62.80;;;;;;4967350;28;115784;-83
2023/12/11 05:25:42;;;;;;;5.60;2.35;;;4.50;62.80;;;;;;4968393;28;114744;-83
2023/12/11 05:28:09;;;;;;;4.68;2.25;;;4.50;62.80;;;;;;4969044;28;114666;-83
2023/12/11 05:30:40;;;;;;;6.60;2.15;;;4.50;63.00;;;;;;4967909;28;114686;-83
2023/12/11 05:33:07;;;;;;;6.00;2.92;;;4.50;63.00;;;;;;4967990;28;115599;-83
2023/12/11 05:35:36;;;;;;;4.82;2.55;;;4.50;63.10;;;;;;4968158;28;114647;-83
2023/12/11 05:38:03;;;;;;;5.82;3.25;;;4.50;63.20;;;;;;4968815;28;114367;-84
2023/12/11 05:40:30;;;;;;;6.72;2.70;;;4.40;63.20;;;;;;4984102;28;114379;-83
2023/12/11 05:42:58;;;;;;;5.63;2.53;;;4.40;63.30;;;;;;4967106;28;115665;-83
2023/12/11 05:45:26;;;;;;;4.25;2.05;;;4.40;63.40;;;;;;4966815;28;116739;-83
2023/12/11 05:47:54;;;;;;;5.88;2.70;;;4.40;63.60;;;;;;4967427;28;114608;-83
2023/12/11 05:50:21;;;;;;;7.07;3.13;;;4.40;63.70;;;;;;4968853;28;114431;-83
2023/12/11 05:52:48;;;;;;;6.78;3.08;;;4.40;63.70;;;;;;4950531;28;115465;-83
2023/12/11 05:55:17;;;;;;;10.45;3.92;;;4.40;63.80;;;;;;4950403;28;116930;-83
2023/12/11 05:57:45;;;;;;;10.85;4.60;;;4.50;63.90;;;;;;4968057;28;114418;-83
2023/12/11 06:00:15;;;;;;;13.30;5.38;;;4.40;64.00;;;;;;4968341;28;114622;-83
2023/12/11 06:02:42;;;;;;;13.73;6.63;;;4.50;63.90;;;;;;4967469;28;115143;-83
2023/12/11 06:05:10;;;;;;;18.52;7.32;;;4.40;63.90;;;;;;4965927;28;114868;-83
2023/12/11 06:07:37;;;;;;;16.20;6.55;;;4.30;64.00;;;;;;4967580;28;114478;-83
2023/12/11 06:10:06;;;;;;;13.18;6.72;;;4.40;64.10;;;;;;4968646;28;114469;-84
2023/12/11 06:12:33;;;;;;;17.55;7.78;;;4.30;64.20;;;;;;4967077;28;116495;-83
2023/12/11 06:15:02;;;;;;;14.75;6.95;;;4.30;64.30;;;;;;4967853;28;114664;-83
2023/12/11 06:17:30;;;;;;;13.55;6.68;;;4.30;64.40;;;;;;4968419;28;114498;-83
2023/12/11 06:19:57;;;;;;;16.00;6.70;;;4.30;64.60;;;;;;4968810;28;114302;-83
2023/12/11 06:22:25;;;;;;;14.68;7.70;;;4.30;64.70;;;;;;4967038;28;115250;-83
2023/12/11 06:24:52;;;;;;;16.52;7.90;;;4.30;64.70;;;;;;4967377;28;114711;-83
2023/12/11 06:27:22;;;;;;;14.60;7.60;;;4.20;64.80;;;;;;4967133;28;114283;-84
2023/12/11 06:29:50;;;;;;;14.63;6.40;;;4.20;65.00;;;;;;4950844;28;114417;-83
2023/12/11 06:32:18;;;;;;;11.70;6.03;;;4.20;65.00;;;;;;4979473;28;115150;-83
2023/12/11 06:34:46;;;;;;;10.07;6.18;;;4.20;65.10;;;;;;4935698;28;114761;-84
2023/12/11 06:37:13;;;;;;;15.38;6.53;;;4.20;65.20;;;;;;4968260;28;114280;-83
2023/12/11 06:39:41;;;;;;;20.60;7.25;;;4.20;65.20;;;;;;4984720;28;114838;-83
2023/12/11 06:42:08;;;;;;;10.18;5.15;;;4.20;65.20;;;;;;4968164;28;115103;-82
2023/12/11 06:44:36;;;;;;;14.18;6.63;;;4.20;65.20;;;;;;4979137;28;114468;-82
2023/12/11 06:47:03;;;;;;;11.15;5.45;;;4.20;65.30;;;;;;4934757;28;114858;-83
2023/12/11 06:49:31;;;;;;;10.82;5.40;;;4.10;65.40;;;;;;4967869;28;114374;-83
2023/12/11 06:52:00;;;;;;;9.20;5.03;;;4.10;65.60;;;;;;4949906;28;115294;-83
2023/12/11 06:54:27;;;;;;;11.20;5.15;;;4.10;65.60;;;;;;4966964;28;115006;-82
2023/12/11 06:56:54;;;;;;;9.70;4.97;;;3.90;65.70;;;;;;4967027;28;114988;-84
2023/12/11 06:59:29;;;;;;;7.88;4.68;;;3.90;65.80;;;;;;4967516;28;114597;-83
2023/12/11 07:01:56;;;;;;;9.00;4.50;;;4.00;66.00;;;;;;4967282;28;116401;-83
2023/12/11 07:04:25;;;;;;;10.23;4.47;;;3.90;66.10;;;;;;4966742;28;115384;-83
2023/12/11 07:06:52;;;;;;;7.85;4.03;;;3.90;66.10;;;;;;4965837;28;114491;-84
2023/12/11 07:09:19;;;;;;;10.63;5.00;;;3.90;66.30;;;;;;4966494;28;114458;-83
2023/12/11 07:11:47;;;;;;;8.15;4.30;;;3.80;66.40;;;;;;4965141;28;115681;-83
2023/12/11 07:14:14;;;;;;;9.63;4.90;;;3.80;66.50;;;;;;4965383;28;115061;-83
2023/12/11 07:16:41;;;;;;;9.75;5.18;;;3.90;66.60;;;;;;4966934;28;114680;-83
2023/12/11 07:19:09;;;;;;;12.02;6.07;;;3.80;66.70;;;;;;4966766;28;114623;-83
2023/12/11 07:21:36;;;;;;;13.10;6.20;;;3.90;66.70;;;;;;4981718;28;116201;-83
2023/12/11 07:24:04;;;;;;;13.75;7.43;;;3.90;66.90;;;;;;4966523;28;115147;-83
2023/12/11 07:26:31;;;;;;;13.73;6.57;;;4.00;66.90;;;;;;4949742;28;114653;-83
2023/12/11 07:29:00;;;;;;;13.85;6.10;;;4.00;67.00;;;;;;4968014;28;114693;-83
2023/12/11 07:31:27;;;;;;;14.63;6.65;;;4.00;67.00;;;;;;4934183;28;115052;-83
2023/12/11 07:33:54;;;;;;;10.73;6.10;;;4.10;67.10;;;;;;4967098;28;114907;-82
2023/12/11 07:36:24;;;;;;;9.77;5.30;;;4.00;67.10;;;;;;4967915;28;114368;-83
2023/12/11 07:38:51;;;;;;;9.20;5.60;;;4.10;67.10;;;;;;4951486;28;114759;-82
2023/12/11 07:41:20;;;;;;;8.18;5.10;;;4.10;67.10;;;;;;4983403;28;115205;-83
2023/12/11 07:43:48;;;;;;;9.32;5.40;;;4.10;67.20;;;;;;4968206;28;114710;-84
2023/12/11 07:46:19;;;;;;;6.65;3.72;;;4.10;67.20;;;;;;4967439;28;114748;-83
2023/12/11 07:48:47;;;;;;;8.65;4.20;;;4.20;67.30;;;;;;4982389;28;114728;-84
2023/12/11 07:51:22;;;;;;;10.27;4.70;;;4.20;67.20;;;;;;4964908;28;115098;-84
2023/12/11 07:53:50;;;;;;;10.00;5.03;;;4.10;67.30;;;;;;4965104;28;114823;-84
2023/12/11 07:56:22;;;;;;;13.60;6.80;;;4.10;67.20;;;;;;4965355;28;114756;-84
2023/12/11 07:58:52;;;;;;;12.60;6.45;;;4.20;67.20;;;;;;4965462;28;114618;-83
2023/12/11 08:01:20;;;;;;;13.80;6.50;;;4.20;67.20;;;;;;4964415;28;115000;-82
2023/12/11 08:03:47;;;;;;;12.70;6.55;;;4.20;67.20;;;;;;4964689;28;114832;-82
2023/12/11 08:06:15;;;;;;;15.77;8.10;;;4.20;67.20;;;;;;4951350;28;114781;-83
2023/12/11 08:08:43;;;;;;;17.88;8.25;;;4.30;67.20;;;;;;4985488;28;114796;-83
2023/12/11 08:11:20;;;;;;;15.43;7.53;;;4.20;67.20;;;;;;4970804;28;115939;-82
2023/12/11 08:13:48;;;;;;;15.52;9.07;;;4.30;67.20;;;;;;4964910;28;114880;-83
2023/12/11 08:16:16;;;;;;;15.00;7.10;;;4.30;67.20;;;;;;4953666;28;114740;-83
2023/12/11 08:18:46;;;;;;;15.82;6.88;;;4.40;67.20;;;;;;4970796;28;114484;-83
2023/12/11 08:21:16;;;;;;;11.32;5.53;;;4.40;67.30;;;;;;4952911;28;115754;-83
2023/12/11 08:23:47;;;;;;;9.63;4.90;;;4.30;67.30;;;;;;4968311;28;114620;-83
2023/12/11 08:26:17;;;;;;;6.93;3.10;;;4.40;67.40;;;;;;4968540;28;114954;-83
2023/12/11 08:28:45;;;;;;;5.50;2.78;;;4.40;67.50;;;;;;4969341;28;114736;-83
2023/12/11 08:31:12;;;;;;;5.45;3.05;;;4.50;67.60;;;;;;4951626;28;115110;-83
2023/12/11 08:33:40;;;;;;;9.02;2.88;;;4.50;67.60;;;;;;4968038;28;114748;-83
2023/12/11 08:36:08;;;;;;;5.22;2.95;;;4.60;67.60;;;;;;4970612;28;114547;-83
2023/12/11 08:38:37;;;;;;;6.55;3.10;;;4.60;67.50;;;;;;4974761;28;114612;-82
2023/12/11 08:41:04;;;;;;;6.70;4.55;;;4.60;67.60;;;;;;4988895;28;114424;-82
2023/12/11 08:43:32;;;;;;;9.80;5.10;;;4.60;67.50;;;;;;4983740;28;116254;-83
2023/12/11 08:45:59;;;;;;;15.55;6.35;;;4.70;67.20;;;;;;4988064;28;114353;-83
2023/12/11 08:48:29;;;;;;;18.95;7.68;;;4.60;67.00;;;;;;4970603;28;115217;-83
2023/12/11 08:50:56;;;;;;;8.80;5.57;;;4.60;66.90;;;;;;4967163;28;117514;-83
2023/12/11 08:53:24;;;;;;;16.08;7.13;;;4.60;66.90;;;;;;4968675;28;114753;-83
2023/12/11 08:55:52;;;;;;;15.02;7.00;;;4.50;66.80;;;;;;4969108;28;114709;-83
2023/12/11 08:58:20;;;;;;;10.45;6.10;;;4.50;66.70;;;;;;4967912;28;114815;-82
2023/12/11 09:00:50;;;;;;;13.48;5.88;;;4.30;66.70;;;;;;4982823;28;115037;-83
2023/12/11 09:03:18;;;;;;;12.38;6.32;;;4.30;66.70;;;;;;4951109;28;114684;-83
2023/12/11 09:05:45;;;;;;;12.43;6.50;;;4.20;66.80;;;;;;4951279;28;114582;-83
2023/12/11 09:08:12;;;;;;;10.65;6.05;;;4.10;67.00;;;;;;4969487;28;114781;-83
2023/12/11 09:10:40;;;;;;;11.35;6.13;;;4.10;67.00;;;;;;4966914;28;115059;-82
2023/12/11 09:13:08;;;;;;;11.98;6.35;;;4.10;67.40;;;;;;4966711;28;115370;-83
2023/12/11 09:15:35;;;;;;;9.73;6.07;;;4.20;67.30;;;;;;4968318;28;114362;-83
2023/12/11 09:18:06;;;;;;;10.60;6.10;;;4.10;67.20;;;;;;4967433;28;114733;-83
2023/12/11 09:20:33;;;;;;;11.73;5.55;;;4.10;67.40;;;;;;4966637;28;116751;-82
2023/12/11 09:23:01;;;;;;;14.40;6.93;;;4.20;67.60;;;;;;4967984;28;114900;-82
2023/12/11 09:25:29;;;;;;;12.93;6.95;;;4.20;67.40;;;;;;4967596;28;114602;-81
2023/12/11 09:27:57;;;;;;;16.83;7.30;;;4.20;67.40;;;;;;4967781;28;114748;-81
2023/12/11 09:30:25;;;;;;;12.18;6.93;;;4.20;67.20;;;;;;4950105;28;118968;-82
2023/12/11 09:32:52;;;;;;;13.60;6.53;;;4.20;67.20;;;;;;4949530;28;116071;-83
2023/12/11 09:35:20;;;;;;;14.27;6.25;;;4.20;67.20;;;;;;4967281;28;114598;-82
2023/12/11 09:37:48;;;;;;;10.55;5.75;;;4.10;67.20;;;;;;4968893;28;114543;-83
2023/12/11 09:40:18;;;;;;;8.75;4.60;;;4.10;67.30;;;;;;4967708;28;115626;-81
2023/12/11 09:42:45;;;;;;;11.57;5.90;;;4.00;67.30;;;;;;4968145;28;114833;-82
2023/12/11 09:45:15;;;;;;;10.15;5.72;;;3.90;67.40;;;;;;4950568;28;114530;-82
2023/12/11 09:47:47;;;;;;;9.82;4.95;;;3.90;67.50;;;;;;4966585;28;114992;-82
2023/12/11 09:50:20;;;;;;;7.55;4.75;;;3.90;67.50;;;;;;4966628;28;115779;-81
2023/12/11 09:52:49;;;;;;;9.18;4.68;;;3.80;67.60;;;;;;4983880;28;114930;-81
2023/12/11 09:55:17;;;;;;;10.05;4.38;;;3.80;67.60;;;;;;4953530;28;114888;-82
2023/12/11 09:57:45;;;;;;;10.70;5.32;;;3.70;67.70;;;;;;4975593;28;114589;-83
2023/12/11 10:00:13;;;;;;;11.35;5.85;;;3.70;67.80;;;;;;4970770;28;115262;-81
2023/12/11 10:02:45;;;;;;;13.02;6.60;;;3.70;67.90;;;;;;4970660;28;114539;-82
2023/12/11 10:05:13;;;;;;;14.07;7.07;;;3.70;67.90;;;;;;4970606;28;114710;-81
2023/12/11 10:07:40;;;;;;;12.90;6.65;;;3.70;68.00;;;;;;4971139;28;114426;-82
2023/12/11 10:10:30;;;;;;;16.33;7.07;;;3.70;68.00;;;;;;4953536;28;117990;-82
2023/12/11 10:12:58;;;;;;;12.15;6.30;;;3.70;68.10;;;;;;4953128;28;115974;-81
2023/12/11 10:15:30;;;;;;;12.68;7.00;;;3.80;68.20;;;;;;4987073;28;114504;-81
2023/12/11 10:18:16;;;;;;;11.35;7.15;;;3.90;68.20;;;;;;4954687;28;114451;-82
2023/12/11 10:20:45;;;;;;;14.02;7.55;;;4.00;68.10;;;;;;4966238;28;117957;-82
2023/12/11 10:23:18;;;;;;;13.93;6.80;;;3.90;68.10;;;;;;4951685;28;114700;-81
2023/12/11 10:25:48;;;;;;;13.82;6.80;;;4.00;68.10;;;;;;4968180;28;114193;-82
2023/12/11 10:28:20;;;;;;;10.60;5.78;;;4.00;68.20;;;;;;4967296;28;114447;-81
2023/12/11 10:30:59;;;;;;;10.10;5.93;;;4.10;68.20;;;;;;4966895;28;115499;-81
2023/12/11 10:33:30;;;;;;;12.68;7.35;;;4.10;67.90;;;;;;4966908;28;117826;-82
2023/12/11 10:36:25;;;;;;;11.55;6.60;;;4.10;67.90;;;;;;4952317;28;114488;-82
2023/12/11 10:39:05;;;;;;;14.05;7.25;;;4.20;68.00;;;;;;4983454;28;114494;-82
2023/12/11 10:41:35;;;;;;;12.23;7.07;;;4.20;68.00;;;;;;4967066;28;114377;-82
2023/12/11 10:44:06;;;;;;;12.07;7.45;;;4.20;67.90;;;;;;4938109;28;116479;-80
2023/12/11 10:46:50;;;;;;;12.40;7.50;;;4.30;67.70;;;;;;4986527;28;114162;-82
2023/12/11 10:49:19;;;;;;;14.10;7.80;;;4.40;67.60;;;;;;4968640;28;114483;-82
2023/12/11 10:51:47;;;;;;;12.38;7.97;;;4.40;67.50;;;;;;4950535;28;116528;-82
2023/12/11 10:54:14;;;;;;;12.93;7.80;;;4.40;67.40;;;;;;4983294;28;114668;-82
2023/12/11 10:56:43;;;;;;;12.63;7.13;;;4.40;67.10;;;;;;4984086;28;114535;-82
2023/12/11 10:59:11;;;;;;;15.25;8.05;;;4.40;67.30;;;;;;4951861;28;114539;-83
2023/12/11 11:01:44;;;;;;;11.25;7.13;;;4.40;67.20;;;;;;4950235;28;118374;-82
2023/12/11 11:04:12;;;;;;;12.10;6.97;;;4.40;67.00;;;;;;4966766;28;114619;-82
2023/12/11 11:06:58;;;;;;;15.05;8.40;;;4.40;67.00;;;;;;4952032;28;114351;-82
2023/12/11 11:10:15;;;;;;;13.77;8.00;;;4.30;67.10;;;;;;4984686;28;114739;-82
2023/12/11 11:13:05;;;;;;;13.82;7.43;;;4.30;67.40;;;;;;4984892;28;115265;-82
2023/12/11 11:15:32;;;;;;;13.95;7.15;;;4.30;67.30;;;;;;4985083;28;114844;-82
2023/12/11 11:18:02;;;;;;;11.85;6.90;;;4.40;67.40;;;;;;4969350;28;114541;-82
2023/12/11 11:20:31;;;;;;;16.45;8.55;;;4.40;67.30;;;;;;4969377;28;114434;-82
2023/12/11 11:23:19;;;;;;;13.25;7.65;;;4.40;67.30;;;;;;4968246;28;115196;-82
2023/12/11 11:25:52;;;;;;;12.57;7.47;;;4.50;67.20;;;;;;4967982;28;118159;-83
2023/12/11 11:28:40;;;;;;;14.05;8.50;;;4.60;67.20;;;;;;4968801;28;114644;-82
2023/12/11 11:31:12;;;;;;;15.23;8.20;;;4.60;67.20;;;;;;4985294;28;114655;-82
2023/12/11 11:33:50;;;;;;;13.88;7.43;;;4.70;67.20;;;;;;4985022;28;114798;-82
2023/12/11 11:36:20;;;;;;;14.00;7.13;;;4.70;67.10;;;;;;4968140;28;115028;-82
2023/12/11 11:38:58;;;;;;;12.18;7.22;;;4.80;66.80;;;;;;4955521;28;114491;-81
2023/12/11 11:41:30;;;;;;;14.15;8.65;;;4.80;66.50;;;;;;4972910;28;114613;-82
2023/12/11 11:44:06;;;;;;;14.30;8.73;;;4.70;66.70;;;;;;4959675;28;115214;-81
2023/12/11 11:46:57;;;;;;;12.85;7.53;;;4.70;66.70;;;;;;4972731;28;114861;-83
2023/12/11 11:49:29;;;;;;;10.95;6.63;;;4.70;66.60;;;;;;4972587;28;114231;-82
2023/12/11 11:52:05;;;;;;;12.45;7.38;;;4.70;66.80;;;;;;4987628;28;114403;-83
2023/12/11 11:54:36;;;;;;;11.20;7.10;;;4.70;66.80;;;;;;4969949;28;115281;-83
2023/12/11 11:57:04;;;;;;;12.25;7.07;;;4.70;66.70;;;;;;4969489;28;114771;-85
2023/12/11 11:59:31;;;;;;;11.43;7.00;;;4.70;66.50;;;;;;4970565;28;114651;-82
2023/12/11 12:01:59;;;;;;;10.20;6.35;;;4.70;66.70;;;;;;4986726;28;114651;-82
2023/12/11 12:04:29;;;;;;;14.07;7.30;;;4.70;66.70;;;;;;4936018;28;116598;-82
2023/12/11 12:07:02;;;;;;;14.60;7.88;;;4.60;66.80;;;;;;4969844;28;114432;-83
2023/12/11 12:09:51;;;;;;;11.63;6.82;;;4.70;66.90;;;;;;4969931;28;114280;-81
2023/12/11 12:12:19;;;;;;;12.25;7.15;;;4.60;66.80;;;;;;4953878;28;114607;-82
2023/12/11 12:14:48;;;;;;;10.85;6.88;;;4.60;66.90;;;;;;4968585;28;118729;-82
2023/12/11 12:17:15;;;;;;;10.85;6.43;;;4.50;67.00;;;;;;4952166;28;115064;-82
2023/12/11 12:19:43;;;;;;;13.00;7.13;;;4.50;67.20;;;;;;4953193;28;114259;-83
2023/12/11 12:22:13;;;;;;;11.90;6.65;;;4.50;67.10;;;;;;4969930;28;114351;-82
2023/12/11 12:24:41;;;;;;;11.77;7.22;;;4.50;67.30;;;;;;4969847;28;115414;-83
2023/12/11 12:27:10;;;;;;;9.73;6.00;;;4.50;67.30;;;;;;4969750;28;114703;-82
2023/12/11 12:29:37;;;;;;;13.18;7.38;;;4.50;67.30;;;;;;4968048;28;114486;-82
2023/12/11 12:32:06;;;;;;;14.75;7.30;;;4.40;67.40;;;;;;4952083;28;114583;-82
2023/12/11 12:34:33;;;;;;;11.85;6.28;;;4.40;67.60;;;;;;4969185;28;115162;-81
2023/12/11 12:37:01;;;;;;;11.90;6.25;;;4.40;67.60;;;;;;4991437;28;113956;-82
2023/12/11 12:39:28;;;;;;;11.10;6.13;;;4.40;67.70;;;;;;4976574;28;114389;-82
2023/12/11 12:41:56;;;;;;;10.15;5.63;;;4.50;67.70;;;;;;4953521;28;114211;-83
2023/12/11 12:44:24;;;;;;;9.23;5.35;;;4.40;67.70;;;;;;4968913;28;115766;-82
2023/12/11 12:46:51;;;;;;;12.15;6.57;;;4.40;67.70;;;;;;4966757;28;114548;-81
2023/12/11 12:49:20;;;;;;;10.50;6.35;;;4.40;67.80;;;;;;4967487;28;115168;-82
2023/12/11 12:51:53;;;;;;;11.43;6.80;;;4.40;67.90;;;;;;4950597;28;114532;-82